sensor_id;sensor_type;location;lat;lon;timestamp;P1;durP1;ratioP1;P2;durP2;ratioP2
64633;SDS011;51043;52.406;9.690;2023-04-03T00:01:19;6.47;;;2.57;;
64633;SDS011;51043;52.406;9.690;2023-04-03T00:03:46;7.57;;;3.03;;
64633;SDS011;51043;52.406;9.690;2023-04-03T00:06:13;7.40;;;2.80;;
64633;SDS011;51043;52.406;9.690;2023-04-03T00:08:40;7.30;;;2.60;;
64633;SDS011;51043;52.406;9.690;2023-04-03T00:11:07;7.03;;;2.90;;
64633;SDS011;51043;52.406;9.690;2023-04-03T00:13:34;7.40;;;3.07;;
64633;SDS011;51043;52.406;9.690;2023-04-03T00:16:00;10.40;;;3.20;;
64633;SDS011;51043;52.406;9.690;2023-04-03T00:18:29;7.53;;;2.80;;
64633;SDS011;51043;52.406;9.690;2023-04-03T00:20:56;6.80;;;2.80;;
64633;SDS011;51043;52.406;9.690;2023-04-03T00:23:23;7.87;;;2.97;;
64633;SDS011;51043;52.406;9.690;2023-04-03T00:25:50;7.83;;;2.80;;
64633;SDS011;51043;52.406;9.690;2023-04-03T00:28:17;7.97;;;3.10;;
64633;SDS011;51043;52.406;9.690;2023-04-03T00:30:44;8.17;;;2.93;;
64633;SDS011;51043;52.406;9.690;2023-04-03T00:33:12;5.27;;;2.63;;
64633;SDS011;51043;52.406;9.690;2023-04-03T00:35:39;6.73;;;2.60;;
64633;SDS011;51043;52.406;9.690;2023-04-03T00:38:07;6.17;;;2.53;;
64633;SDS011;51043;52.406;9.690;2023-04-03T00:40:36;7.40;;;2.57;;
64633;SDS011;51043;52.406;9.690;2023-04-03T00:43:11;7.60;;;2.33;;
64633;SDS011;51043;52.406;9.690;2023-04-03T00:45:45;10.63;;;2.90;;
64633;SDS011;51043;52.406;9.690;2023-04-03T00:48:15;7.07;;;3.03;;
64633;SDS011;51043;52.406;9.690;2023-04-03T00:50:46;8.93;;;2.93;;
64633;SDS011;51043;52.406;9.690;2023-04-03T00:53:25;8.47;;;3.60;;
64633;SDS011;51043;52.406;9.690;2023-04-03T00:55:56;9.70;;;2.73;;
64633;SDS011;51043;52.406;9.690;2023-04-03T00:58:32;3.37;;;2.30;;
64633;SDS011;51043;52.406;9.690;2023-04-03T01:01:03;9.70;;;3.00;;
64633;SDS011;51043;52.406;9.690;2023-04-03T01:03:34;5.13;;;2.90;;
64633;SDS011;51043;52.406;9.690;2023-04-03T01:06:02;7.90;;;3.17;;
64633;SDS011;51043;52.406;9.690;2023-04-03T01:08:30;7.03;;;3.27;;
64633;SDS011;51043;52.406;9.690;2023-04-03T01:10:57;9.63;;;3.20;;
64633;SDS011;51043;52.406;9.690;2023-04-03T01:13:26;8.30;;;3.27;;
64633;SDS011;51043;52.406;9.690;2023-04-03T01:16:02;7.80;;;3.00;;
64633;SDS011;51043;52.406;9.690;2023-04-03T01:18:31;9.13;;;2.77;;
64633;SDS011;51043;52.406;9.690;2023-04-03T01:21:13;10.17;;;2.83;;
64633;SDS011;51043;52.406;9.690;2023-04-03T01:26:23;5.60;;;2.50;;
64633;SDS011;51043;52.406;9.690;2023-04-03T01:28:53;13.30;;;3.27;;
64633;SDS011;51043;52.406;9.690;2023-04-03T01:31:25;11.17;;;2.60;;
64633;SDS011;51043;52.406;9.690;2023-04-03T01:33:59;10.77;;;2.70;;
64633;SDS011;51043;52.406;9.690;2023-04-03T01:36:28;10.57;;;3.00;;
64633;SDS011;51043;52.406;9.690;2023-04-03T01:38:57;6.20;;;3.07;;
64633;SDS011;51043;52.406;9.690;2023-04-03T01:41:26;7.20;;;2.80;;
64633;SDS011;51043;52.406;9.690;2023-04-03T01:43:59;11.57;;;3.40;;
64633;SDS011;51043;52.406;9.690;2023-04-03T01:46:26;12.10;;;3.33;;
64633;SDS011;51043;52.406;9.690;2023-04-03T01:48:53;5.87;;;2.70;;
64633;SDS011;51043;52.406;9.690;2023-04-03T01:51:20;9.03;;;2.60;;
64633;SDS011;51043;52.406;9.690;2023-04-03T01:53:48;7.50;;;2.83;;
64633;SDS011;51043;52.406;9.690;2023-04-03T01:56:15;9.30;;;3.20;;
64633;SDS011;51043;52.406;9.690;2023-04-03T01:58:42;6.57;;;2.30;;
64633;SDS011;51043;52.406;9.690;2023-04-03T02:01:09;11.20;;;2.60;;
64633;SDS011;51043;52.406;9.690;2023-04-03T02:03:36;9.47;;;3.00;;
64633;SDS011;51043;52.406;9.690;2023-04-03T02:06:11;6.47;;;2.83;;
64633;SDS011;51043;52.406;9.690;2023-04-03T02:08:38;8.23;;;2.80;;
64633;SDS011;51043;52.406;9.690;2023-04-03T02:11:05;7.07;;;2.20;;
64633;SDS011;51043;52.406;9.690;2023-04-03T02:13:32;9.77;;;3.00;;
64633;SDS011;51043;52.406;9.690;2023-04-03T02:15:59;8.17;;;2.63;;
64633;SDS011;51043;52.406;9.690;2023-04-03T02:18:31;11.67;;;3.53;;
64633;SDS011;51043;52.406;9.690;2023-04-03T02:20:58;10.00;;;2.87;;
64633;SDS011;51043;52.406;9.690;2023-04-03T02:23:25;7.13;;;2.50;;
64633;SDS011;51043;52.406;9.690;2023-04-03T02:25:52;10.17;;;2.97;;
64633;SDS011;51043;52.406;9.690;2023-04-03T02:28:21;6.03;;;2.67;;
64633;SDS011;51043;52.406;9.690;2023-04-03T02:30:48;9.80;;;2.80;;
64633;SDS011;51043;52.406;9.690;2023-04-03T02:33:15;12.47;;;3.30;;
64633;SDS011;51043;52.406;9.690;2023-04-03T02:35:42;5.17;;;2.60;;
64633;SDS011;51043;52.406;9.690;2023-04-03T02:38:09;7.10;;;2.77;;
64633;SDS011;51043;52.406;9.690;2023-04-03T02:40:37;8.80;;;2.90;;
64633;SDS011;51043;52.406;9.690;2023-04-03T02:43:04;7.20;;;2.80;;
64633;SDS011;51043;52.406;9.690;2023-04-03T02:45:31;7.03;;;2.90;;
64633;SDS011;51043;52.406;9.690;2023-04-03T02:47:58;5.43;;;2.50;;
64633;SDS011;51043;52.406;9.690;2023-04-03T02:50:25;6.93;;;2.23;;
64633;SDS011;51043;52.406;9.690;2023-04-03T02:52:52;8.13;;;2.90;;
64633;SDS011;51043;52.406;9.690;2023-04-03T02:55:19;8.03;;;2.80;;
64633;SDS011;51043;52.406;9.690;2023-04-03T02:57:48;6.40;;;2.50;;
64633;SDS011;51043;52.406;9.690;2023-04-03T03:00:15;7.47;;;2.70;;
64633;SDS011;51043;52.406;9.690;2023-04-03T03:02:42;8.30;;;2.50;;
64633;SDS011;51043;52.406;9.690;2023-04-03T03:05:09;9.37;;;2.80;;
64633;SDS011;51043;52.406;9.690;2023-04-03T03:07:36;8.20;;;2.63;;
64633;SDS011;51043;52.406;9.690;2023-04-03T03:10:03;8.60;;;2.50;;
64633;SDS011;51043;52.406;9.690;2023-04-03T03:12:30;9.17;;;2.77;;
64633;SDS011;51043;52.406;9.690;2023-04-03T03:14:57;6.40;;;2.77;;
64633;SDS011;51043;52.406;9.690;2023-04-03T03:17:24;13.07;;;3.00;;
64633;SDS011;51043;52.406;9.690;2023-04-03T03:19:51;7.40;;;2.80;;
64633;SDS011;51043;52.406;9.690;2023-04-03T03:22:18;7.07;;;2.77;;
64633;SDS011;51043;52.406;9.690;2023-04-03T03:24:45;5.53;;;2.63;;
64633;SDS011;51043;52.406;9.690;2023-04-03T03:27:13;10.83;;;3.00;;
64633;SDS011;51043;52.406;9.690;2023-04-03T03:29:42;9.13;;;2.40;;
64633;SDS011;51043;52.406;9.690;2023-04-03T03:32:09;6.10;;;2.60;;
64633;SDS011;51043;52.406;9.690;2023-04-03T03:34:36;9.47;;;3.03;;
64633;SDS011;51043;52.406;9.690;2023-04-03T03:37:04;11.73;;;2.63;;
64633;SDS011;51043;52.406;9.690;2023-04-03T03:39:30;6.27;;;2.30;;
64633;SDS011;51043;52.406;9.690;2023-04-03T03:41:57;9.20;;;2.50;;
64633;SDS011;51043;52.406;9.690;2023-04-03T03:44:24;6.33;;;2.43;;
64633;SDS011;51043;52.406;9.690;2023-04-03T03:46:52;6.73;;;2.27;;
64633;SDS011;51043;52.406;9.690;2023-04-03T03:49:19;5.90;;;2.30;;
64633;SDS011;51043;52.406;9.690;2023-04-03T03:51:46;9.63;;;2.40;;
64633;SDS011;51043;52.406;9.690;2023-04-03T03:54:13;7.00;;;2.40;;
64633;SDS011;51043;52.406;9.690;2023-04-03T03:56:40;12.90;;;3.23;;
64633;SDS011;51043;52.406;9.690;2023-04-03T03:59:07;11.47;;;3.20;;
64633;SDS011;51043;52.406;9.690;2023-04-03T04:01:34;6.03;;;2.43;;
64633;SDS011;51043;52.406;9.690;2023-04-03T04:04:01;7.63;;;2.70;;
64633;SDS011;51043;52.406;9.690;2023-04-03T04:06:30;8.57;;;2.73;;
64633;SDS011;51043;52.406;9.690;2023-04-03T04:09:01;10.57;;;2.80;;
64633;SDS011;51043;52.406;9.690;2023-04-03T04:11:28;16.93;;;2.93;;
64633;SDS011;51043;52.406;9.690;2023-04-03T04:13:56;10.10;;;3.03;;
64633;SDS011;51043;52.406;9.690;2023-04-03T04:16:25;8.00;;;2.30;;
64633;SDS011;51043;52.406;9.690;2023-04-03T04:18:53;10.17;;;3.03;;
64633;SDS011;51043;52.406;9.690;2023-04-03T04:21:20;6.30;;;2.80;;
64633;SDS011;51043;52.406;9.690;2023-04-03T04:23:49;12.27;;;2.97;;
64633;SDS011;51043;52.406;9.690;2023-04-03T04:26:16;7.77;;;2.40;;
64633;SDS011;51043;52.406;9.690;2023-04-03T04:28:43;5.47;;;2.50;;
64633;SDS011;51043;52.406;9.690;2023-04-03T04:31:10;7.27;;;2.73;;
64633;SDS011;51043;52.406;9.690;2023-04-03T04:33:36;9.13;;;2.80;;
64633;SDS011;51043;52.406;9.690;2023-04-03T04:36:05;10.37;;;2.67;;
64633;SDS011;51043;52.406;9.690;2023-04-03T04:38:33;10.90;;;3.03;;
64633;SDS011;51043;52.406;9.690;2023-04-03T04:41:00;9.67;;;3.10;;
64633;SDS011;51043;52.406;9.690;2023-04-03T04:43:27;8.63;;;3.37;;
64633;SDS011;51043;52.406;9.690;2023-04-03T04:46:28;9.80;;;3.03;;
64633;SDS011;51043;52.406;9.690;2023-04-03T04:48:52;8.73;;;2.83;;
64633;SDS011;51043;52.406;9.690;2023-04-03T04:51:21;9.93;;;3.40;;
64633;SDS011;51043;52.406;9.690;2023-04-03T04:53:47;6.33;;;2.83;;
64633;SDS011;51043;52.406;9.690;2023-04-03T04:56:16;11.07;;;3.23;;
64633;SDS011;51043;52.406;9.690;2023-04-03T04:58:44;11.13;;;3.00;;
64633;SDS011;51043;52.406;9.690;2023-04-03T05:01:11;12.00;;;3.20;;
64633;SDS011;51043;52.406;9.690;2023-04-03T05:03:47;12.83;;;4.00;;
64633;SDS011;51043;52.406;9.690;2023-04-03T05:06:15;12.87;;;3.40;;
64633;SDS011;51043;52.406;9.690;2023-04-03T05:08:42;11.93;;;3.60;;
64633;SDS011;51043;52.406;9.690;2023-04-03T05:11:08;13.67;;;3.70;;
64633;SDS011;51043;52.406;9.690;2023-04-03T05:13:37;19.13;;;4.33;;
64633;SDS011;51043;52.406;9.690;2023-04-03T05:16:04;10.83;;;4.20;;
64633;SDS011;51043;52.406;9.690;2023-04-03T05:18:31;19.10;;;4.03;;
64633;SDS011;51043;52.406;9.690;2023-04-03T05:21:03;9.03;;;3.53;;
64633;SDS011;51043;52.406;9.690;2023-04-03T05:23:30;17.63;;;3.63;;
64633;SDS011;51043;52.406;9.690;2023-04-03T05:25:59;13.60;;;3.60;;
64633;SDS011;51043;52.406;9.690;2023-04-03T05:28:27;13.47;;;3.90;;
64633;SDS011;51043;52.406;9.690;2023-04-03T05:30:54;11.33;;;3.70;;
64633;SDS011;51043;52.406;9.690;2023-04-03T05:33:30;11.00;;;3.87;;
64633;SDS011;51043;52.406;9.690;2023-04-03T05:36:01;12.60;;;3.70;;
64633;SDS011;51043;52.406;9.690;2023-04-03T05:38:36;11.30;;;3.27;;
64633;SDS011;51043;52.406;9.690;2023-04-03T05:41:03;7.87;;;3.33;;
64633;SDS011;51043;52.406;9.690;2023-04-03T05:43:30;11.47;;;3.50;;
64633;SDS011;51043;52.406;9.690;2023-04-03T05:45:57;10.60;;;3.50;;
64633;SDS011;51043;52.406;9.690;2023-04-03T05:48:26;11.20;;;3.40;;
64633;SDS011;51043;52.406;9.690;2023-04-03T05:50:53;7.17;;;3.33;;
64633;SDS011;51043;52.406;9.690;2023-04-03T05:53:25;12.47;;;3.50;;
64633;SDS011;51043;52.406;9.690;2023-04-03T05:55:57;9.67;;;3.10;;
64633;SDS011;51043;52.406;9.690;2023-04-03T05:58:25;11.83;;;3.23;;
64633;SDS011;51043;52.406;9.690;2023-04-03T06:00:52;12.73;;;3.00;;
64633;SDS011;51043;52.406;9.690;2023-04-03T06:03:19;8.77;;;3.00;;
64633;SDS011;51043;52.406;9.690;2023-04-03T06:05:46;13.20;;;3.03;;
64633;SDS011;51043;52.406;9.690;2023-04-03T06:08:13;11.70;;;3.30;;
64633;SDS011;51043;52.406;9.690;2023-04-03T06:10:41;8.83;;;3.33;;
64633;SDS011;51043;52.406;9.690;2023-04-03T06:13:08;11.30;;;2.93;;
64633;SDS011;51043;52.406;9.690;2023-04-03T06:15:34;7.17;;;2.60;;
64633;SDS011;51043;52.406;9.690;2023-04-03T06:18:03;6.60;;;2.90;;
64633;SDS011;51043;52.406;9.690;2023-04-03T06:20:29;9.00;;;2.97;;
64633;SDS011;51043;52.406;9.690;2023-04-03T06:22:57;10.97;;;2.97;;
64633;SDS011;51043;52.406;9.690;2023-04-03T06:25:24;9.23;;;2.90;;
64633;SDS011;51043;52.406;9.690;2023-04-03T06:27:51;8.07;;;2.60;;
64633;SDS011;51043;52.406;9.690;2023-04-03T06:30:18;9.73;;;2.33;;
64633;SDS011;51043;52.406;9.690;2023-04-03T06:32:45;8.57;;;2.73;;
64633;SDS011;51043;52.406;9.690;2023-04-03T06:35:12;8.13;;;2.43;;
64633;SDS011;51043;52.406;9.690;2023-04-03T06:37:39;8.63;;;2.60;;
64633;SDS011;51043;52.406;9.690;2023-04-03T06:40:06;6.70;;;2.90;;
64633;SDS011;51043;52.406;9.690;2023-04-03T06:42:33;11.20;;;2.77;;
64633;SDS011;51043;52.406;9.690;2023-04-03T06:45:08;5.80;;;2.17;;
64633;SDS011;51043;52.406;9.690;2023-04-03T06:47:37;9.70;;;2.63;;
64633;SDS011;51043;52.406;9.690;2023-04-03T06:50:04;5.70;;;2.40;;
64633;SDS011;51043;52.406;9.690;2023-04-03T06:52:32;5.87;;;2.37;;
64633;SDS011;51043;52.406;9.690;2023-04-03T06:54:59;7.73;;;2.67;;
64633;SDS011;51043;52.406;9.690;2023-04-03T06:57:26;8.53;;;2.40;;
64633;SDS011;51043;52.406;9.690;2023-04-03T06:59:53;10.33;;;2.80;;
64633;SDS011;51043;52.406;9.690;2023-04-03T07:02:20;7.77;;;2.40;;
64633;SDS011;51043;52.406;9.690;2023-04-03T07:04:46;8.63;;;2.30;;
64633;SDS011;51043;52.406;9.690;2023-04-03T07:07:13;8.57;;;2.80;;
64633;SDS011;51043;52.406;9.690;2023-04-03T07:09:41;8.97;;;2.37;;
64633;SDS011;51043;52.406;9.690;2023-04-03T07:12:10;6.30;;;2.30;;
64633;SDS011;51043;52.406;9.690;2023-04-03T07:14:37;6.80;;;2.20;;
64633;SDS011;51043;52.406;9.690;2023-04-03T07:17:04;7.27;;;2.10;;
64633;SDS011;51043;52.406;9.690;2023-04-03T07:19:30;8.30;;;2.37;;
64633;SDS011;51043;52.406;9.690;2023-04-03T07:21:57;6.47;;;2.33;;
64633;SDS011;51043;52.406;9.690;2023-04-03T07:24:24;7.47;;;2.17;;
64633;SDS011;51043;52.406;9.690;2023-04-03T07:26:51;4.70;;;2.07;;
64633;SDS011;51043;52.406;9.690;2023-04-03T07:29:19;9.00;;;2.43;;
64633;SDS011;51043;52.406;9.690;2023-04-03T07:31:47;5.37;;;1.90;;
64633;SDS011;51043;52.406;9.690;2023-04-03T07:34:15;6.07;;;1.87;;
64633;SDS011;51043;52.406;9.690;2023-04-03T07:36:42;5.20;;;1.90;;
64633;SDS011;51043;52.406;9.690;2023-04-03T07:39:08;4.15;;;1.83;;
64633;SDS011;51043;52.406;9.690;2023-04-03T07:41:35;5.07;;;1.80;;
64633;SDS011;51043;52.406;9.690;2023-04-03T07:44:03;5.20;;;1.92;;
64633;SDS011;51043;52.406;9.690;2023-04-03T07:46:31;5.07;;;1.85;;
64633;SDS011;51043;52.406;9.690;2023-04-03T07:48:58;3.47;;;1.60;;
64633;SDS011;51043;52.406;9.690;2023-04-03T07:51:25;6.25;;;2.08;;
64633;SDS011;51043;52.406;9.690;2023-04-03T07:53:53;6.40;;;1.70;;
64633;SDS011;51043;52.406;9.690;2023-04-03T07:56:20;5.00;;;1.90;;
64633;SDS011;51043;52.406;9.690;2023-04-03T07:58:47;6.28;;;1.83;;
64633;SDS011;51043;52.406;9.690;2023-04-03T08:01:14;3.83;;;1.60;;
64633;SDS011;51043;52.406;9.690;2023-04-03T08:03:41;6.00;;;1.90;;
64633;SDS011;51043;52.406;9.690;2023-04-03T08:06:08;6.10;;;1.67;;
64633;SDS011;51043;52.406;9.690;2023-04-03T08:08:37;5.82;;;1.88;;
64633;SDS011;51043;52.406;9.690;2023-04-03T08:11:04;4.85;;;1.90;;
64633;SDS011;51043;52.406;9.690;2023-04-03T08:13:35;3.05;;;1.58;;
64633;SDS011;51043;52.406;9.690;2023-04-03T08:16:09;4.68;;;1.80;;
64633;SDS011;51043;52.406;9.690;2023-04-03T08:18:38;5.68;;;1.88;;
64633;SDS011;51043;52.406;9.690;2023-04-03T08:21:06;4.32;;;1.77;;
64633;SDS011;51043;52.406;9.690;2023-04-03T08:23:33;4.60;;;1.98;;
64633;SDS011;51043;52.406;9.690;2023-04-03T08:26:08;4.20;;;1.80;;
64633;SDS011;51043;52.406;9.690;2023-04-03T08:28:35;4.25;;;1.90;;
64633;SDS011;51043;52.406;9.690;2023-04-03T08:31:02;4.43;;;2.00;;
64633;SDS011;51043;52.406;9.690;2023-04-03T08:33:32;3.28;;;1.67;;
64633;SDS011;51043;52.406;9.690;2023-04-03T08:36:01;4.82;;;1.90;;
64633;SDS011;51043;52.406;9.690;2023-04-03T08:38:29;3.80;;;1.80;;
64633;SDS011;51043;52.406;9.690;2023-04-03T08:46:26;6.75;;;1.70;;
64633;SDS011;51043;52.406;9.690;2023-04-03T08:49:10;3.60;;;1.77;;
64633;SDS011;51043;52.406;9.690;2023-04-03T08:52:01;3.55;;;1.88;;
64633;SDS011;51043;52.406;9.690;2023-04-03T08:54:37;3.30;;;1.58;;
64633;SDS011;51043;52.406;9.690;2023-04-03T08:57:16;3.28;;;1.45;;
64633;SDS011;51043;52.406;9.690;2023-04-03T08:59:46;4.05;;;1.65;;
64633;SDS011;51043;52.406;9.690;2023-04-03T09:02:34;5.10;;;1.92;;
64633;SDS011;51043;52.406;9.690;2023-04-03T09:05:12;4.82;;;1.52;;
64633;SDS011;51043;52.406;9.690;2023-04-03T09:07:43;3.22;;;1.67;;
64633;SDS011;51043;52.406;9.690;2023-04-03T09:10:15;4.43;;;1.75;;
64633;SDS011;51043;52.406;9.690;2023-04-03T09:12:51;3.60;;;1.50;;
64633;SDS011;51043;52.406;9.690;2023-04-03T09:15:25;5.47;;;1.90;;
64633;SDS011;51043;52.406;9.690;2023-04-03T09:17:59;4.57;;;1.90;;
64633;SDS011;51043;52.406;9.690;2023-04-03T09:23:10;5.25;;;1.70;;
64633;SDS011;51043;52.406;9.690;2023-04-03T09:26:09;5.55;;;1.73;;
64633;SDS011;51043;52.406;9.690;2023-04-03T09:28:45;3.95;;;2.00;;
64633;SDS011;51043;52.406;9.690;2023-04-03T09:33:54;5.13;;;1.90;;
64633;SDS011;51043;52.406;9.690;2023-04-03T09:36:38;5.73;;;2.10;;
64633;SDS011;51043;52.406;9.690;2023-04-03T09:39:10;4.67;;;1.70;;
64633;SDS011;51043;52.406;9.690;2023-04-03T09:41:40;3.60;;;1.37;;
64633;SDS011;51043;52.406;9.690;2023-04-03T09:44:22;4.80;;;1.80;;
64633;SDS011;51043;52.406;9.690;2023-04-03T09:46:51;4.93;;;1.73;;
64633;SDS011;51043;52.406;9.690;2023-04-03T09:49:18;3.90;;;1.70;;
64633;SDS011;51043;52.406;9.690;2023-04-03T09:51:45;4.17;;;1.60;;
64633;SDS011;51043;52.406;9.690;2023-04-03T09:54:30;5.53;;;1.80;;
64633;SDS011;51043;52.406;9.690;2023-04-03T09:57:05;6.07;;;2.00;;
64633;SDS011;51043;52.406;9.690;2023-04-03T09:59:35;3.87;;;1.63;;
64633;SDS011;51043;52.406;9.690;2023-04-03T10:04:49;3.70;;;1.80;;
64633;SDS011;51043;52.406;9.690;2023-04-03T10:07:34;3.83;;;1.50;;
64633;SDS011;51043;52.406;9.690;2023-04-03T10:12:48;4.20;;;1.73;;
64633;SDS011;51043;52.406;9.690;2023-04-03T10:15:39;3.43;;;1.43;;
64633;SDS011;51043;52.406;9.690;2023-04-03T10:18:24;2.95;;;1.45;;
64633;SDS011;51043;52.406;9.690;2023-04-03T10:21:19;4.20;;;1.70;;
64633;SDS011;51043;52.406;9.690;2023-04-03T10:24:00;2.40;;;1.43;;
64633;SDS011;51043;52.406;9.690;2023-04-03T10:26:52;6.80;;;2.00;;
64633;SDS011;51043;52.406;9.690;2023-04-03T10:32:26;2.10;;;1.17;;
64633;SDS011;51043;52.406;9.690;2023-04-03T10:35:37;4.23;;;1.60;;
64633;SDS011;51043;52.406;9.690;2023-04-03T10:38:20;4.47;;;1.63;;
64633;SDS011;51043;52.406;9.690;2023-04-03T10:43:44;3.83;;;1.60;;
64633;SDS011;51043;52.406;9.690;2023-04-03T10:51:36;3.37;;;1.57;;
64633;SDS011;51043;52.406;9.690;2023-04-03T10:54:37;3.47;;;1.52;;
64633;SDS011;51043;52.406;9.690;2023-04-03T10:57:25;3.05;;;1.27;;
64633;SDS011;51043;52.406;9.690;2023-04-03T10:59:58;2.88;;;1.40;;
64633;SDS011;51043;52.406;9.690;2023-04-03T11:05:02;3.33;;;1.70;;
64633;SDS011;51043;52.406;9.690;2023-04-03T11:07:39;2.92;;;1.55;;
64633;SDS011;51043;52.406;9.690;2023-04-03T11:10:11;5.07;;;1.77;;
64633;SDS011;51043;52.406;9.690;2023-04-03T11:12:44;4.57;;;1.73;;
64633;SDS011;51043;52.406;9.690;2023-04-03T11:15:34;3.17;;;1.80;;
64633;SDS011;51043;52.406;9.690;2023-04-03T11:18:02;5.87;;;1.73;;
64633;SDS011;51043;52.406;9.690;2023-04-03T11:20:44;4.40;;;1.90;;
64633;SDS011;51043;52.406;9.690;2023-04-03T11:23:25;6.03;;;2.20;;
64633;SDS011;51043;52.406;9.690;2023-04-03T11:25:57;2.93;;;1.40;;
64633;SDS011;51043;52.406;9.690;2023-04-03T11:28:35;4.27;;;1.70;;
64633;SDS011;51043;52.406;9.690;2023-04-03T11:36:58;4.47;;;1.63;;
64633;SDS011;51043;52.406;9.690;2023-04-03T11:39:28;4.03;;;1.60;;
64633;SDS011;51043;52.406;9.690;2023-04-03T11:45:15;7.03;;;1.97;;
64633;SDS011;51043;52.406;9.690;2023-04-03T12:05:52;3.13;;;1.43;;
64633;SDS011;51043;52.406;9.690;2023-04-03T12:08:26;3.80;;;1.60;;
64633;SDS011;51043;52.406;9.690;2023-04-03T12:13:40;4.40;;;1.40;;
64633;SDS011;51043;52.406;9.690;2023-04-03T12:16:21;5.10;;;1.80;;
64633;SDS011;51043;52.406;9.690;2023-04-03T12:21:23;3.00;;;1.50;;
64633;SDS011;51043;52.406;9.690;2023-04-03T12:24:40;3.13;;;1.53;;
64633;SDS011;51043;52.406;9.690;2023-04-03T12:31:52;3.47;;;1.67;;
64633;SDS011;51043;52.406;9.690;2023-04-03T12:34:48;3.13;;;1.67;;
64633;SDS011;51043;52.406;9.690;2023-04-03T12:40:21;2.23;;;1.60;;
64633;SDS011;51043;52.406;9.690;2023-04-03T12:45:56;2.90;;;1.60;;
64633;SDS011;51043;52.406;9.690;2023-04-03T12:48:37;4.07;;;1.50;;
64633;SDS011;51043;52.406;9.690;2023-04-03T12:51:14;2.97;;;1.67;;
64633;SDS011;51043;52.406;9.690;2023-04-03T12:53:44;4.53;;;1.43;;
64633;SDS011;51043;52.406;9.690;2023-04-03T12:56:22;3.10;;;1.40;;
64633;SDS011;51043;52.406;9.690;2023-04-03T12:58:50;5.13;;;1.90;;
64633;SDS011;51043;52.406;9.690;2023-04-03T13:01:19;3.03;;;1.53;;
64633;SDS011;51043;52.406;9.690;2023-04-03T13:03:52;2.43;;;1.40;;
64633;SDS011;51043;52.406;9.690;2023-04-03T13:06:22;4.60;;;1.90;;
64633;SDS011;51043;52.406;9.690;2023-04-03T13:08:53;3.77;;;1.60;;
64633;SDS011;51043;52.406;9.690;2023-04-03T13:11:27;5.90;;;1.80;;
64633;SDS011;51043;52.406;9.690;2023-04-03T13:14:00;2.00;;;1.30;;
64633;SDS011;51043;52.406;9.690;2023-04-03T13:16:32;5.60;;;1.50;;
64633;SDS011;51043;52.406;9.690;2023-04-03T13:19:00;3.10;;;1.40;;
64633;SDS011;51043;52.406;9.690;2023-04-03T13:21:30;4.30;;;1.60;;
64633;SDS011;51043;52.406;9.690;2023-04-03T13:24:00;3.73;;;1.67;;
64633;SDS011;51043;52.406;9.690;2023-04-03T13:26:37;3.70;;;1.60;;
64633;SDS011;51043;52.406;9.690;2023-04-03T13:29:06;4.87;;;1.80;;
64633;SDS011;51043;52.406;9.690;2023-04-03T13:31:37;4.80;;;1.50;;
64633;SDS011;51043;52.406;9.690;2023-04-03T13:34:06;3.47;;;1.70;;
64633;SDS011;51043;52.406;9.690;2023-04-03T13:36:39;5.90;;;1.43;;
64633;SDS011;51043;52.406;9.690;2023-04-03T13:41:43;5.57;;;2.23;;
64633;SDS011;51043;52.406;9.690;2023-04-03T13:46:49;4.43;;;1.80;;
64633;SDS011;51043;52.406;9.690;2023-04-03T13:49:37;2.63;;;1.60;;
64633;SDS011;51043;52.406;9.690;2023-04-03T13:54:58;4.63;;;2.13;;
64633;SDS011;51043;52.406;9.690;2023-04-03T13:57:27;1.87;;;1.37;;
64633;SDS011;51043;52.406;9.690;2023-04-03T13:59:54;4.63;;;1.70;;
64633;SDS011;51043;52.406;9.690;2023-04-03T14:02:28;2.77;;;1.63;;
64633;SDS011;51043;52.406;9.690;2023-04-03T14:04:58;4.50;;;1.60;;
64633;SDS011;51043;52.406;9.690;2023-04-03T14:07:28;3.43;;;1.37;;
64633;SDS011;51043;52.406;9.690;2023-04-03T14:09:57;2.90;;;1.53;;
64633;SDS011;51043;52.406;9.690;2023-04-03T14:12:30;4.13;;;1.47;;
64633;SDS011;51043;52.406;9.690;2023-04-03T14:15:04;5.60;;;1.90;;
64633;SDS011;51043;52.406;9.690;2023-04-03T14:17:38;4.03;;;1.70;;
64633;SDS011;51043;52.406;9.690;2023-04-03T14:20:05;3.67;;;1.40;;
64633;SDS011;51043;52.406;9.690;2023-04-03T14:22:32;4.60;;;1.53;;
64633;SDS011;51043;52.406;9.690;2023-04-03T14:25:01;4.77;;;1.90;;
64633;SDS011;51043;52.406;9.690;2023-04-03T14:27:35;2.87;;;1.40;;
64633;SDS011;51043;52.406;9.690;2023-04-03T14:30:06;4.60;;;1.93;;
64633;SDS011;51043;52.406;9.690;2023-04-03T14:32:38;4.20;;;1.80;;
64633;SDS011;51043;52.406;9.690;2023-04-03T14:35:05;5.50;;;2.03;;
64633;SDS011;51043;52.406;9.690;2023-04-03T14:37:32;6.03;;;2.10;;
64633;SDS011;51043;52.406;9.690;2023-04-03T14:40:00;3.13;;;1.40;;
64633;SDS011;51043;52.406;9.690;2023-04-03T14:42:31;4.83;;;1.60;;
64633;SDS011;51043;52.406;9.690;2023-04-03T14:45:01;5.20;;;1.60;;
64633;SDS011;51043;52.406;9.690;2023-04-03T14:47:33;3.40;;;1.93;;
64633;SDS011;51043;52.406;9.690;2023-04-03T14:50:07;2.80;;;1.60;;
64633;SDS011;51043;52.406;9.690;2023-04-03T14:52:39;4.93;;;2.10;;
64633;SDS011;51043;52.406;9.690;2023-04-03T14:55:07;3.20;;;1.90;;
64633;SDS011;51043;52.406;9.690;2023-04-03T14:57:34;3.70;;;1.60;;
64633;SDS011;51043;52.406;9.690;2023-04-03T15:00:01;3.00;;;1.60;;
64633;SDS011;51043;52.406;9.690;2023-04-03T15:02:37;3.00;;;1.63;;
64633;SDS011;51043;52.406;9.690;2023-04-03T15:05:06;4.43;;;1.70;;
64633;SDS011;51043;52.406;9.690;2023-04-03T15:07:36;3.00;;;1.60;;
64633;SDS011;51043;52.406;9.690;2023-04-03T15:10:21;4.67;;;1.70;;
64633;SDS011;51043;52.406;9.690;2023-04-03T15:12:53;5.33;;;2.00;;
64633;SDS011;51043;52.406;9.690;2023-04-03T15:15:21;3.57;;;2.10;;
64633;SDS011;51043;52.406;9.690;2023-04-03T15:17:53;5.10;;;1.90;;
64633;SDS011;51043;52.406;9.690;2023-04-03T15:20:22;2.77;;;1.40;;
64633;SDS011;51043;52.406;9.690;2023-04-03T15:22:53;4.53;;;1.60;;
64633;SDS011;51043;52.406;9.690;2023-04-03T15:25:22;3.33;;;1.50;;
64633;SDS011;51043;52.406;9.690;2023-04-03T15:27:50;3.67;;;1.73;;
64633;SDS011;51043;52.406;9.690;2023-04-03T15:30:17;3.33;;;1.87;;
64633;SDS011;51043;52.406;9.690;2023-04-03T15:32:45;5.83;;;2.00;;
64633;SDS011;51043;52.406;9.690;2023-04-03T15:35:12;5.93;;;2.00;;
64633;SDS011;51043;52.406;9.690;2023-04-03T15:37:40;3.53;;;1.50;;
64633;SDS011;51043;52.406;9.690;2023-04-03T15:40:07;3.77;;;1.83;;
64633;SDS011;51043;52.406;9.690;2023-04-03T15:42:34;4.30;;;1.90;;
64633;SDS011;51043;52.406;9.690;2023-04-03T15:45:01;3.83;;;1.80;;
64633;SDS011;51043;52.406;9.690;2023-04-03T15:47:28;5.77;;;2.80;;
64633;SDS011;51043;52.406;9.690;2023-04-03T15:49:55;7.13;;;1.87;;
64633;SDS011;51043;52.406;9.690;2023-04-03T15:52:22;3.20;;;1.87;;
64633;SDS011;51043;52.406;9.690;2023-04-03T15:54:49;6.20;;;1.77;;
64633;SDS011;51043;52.406;9.690;2023-04-03T15:57:16;4.07;;;1.93;;
64633;SDS011;51043;52.406;9.690;2023-04-03T15:59:43;6.97;;;2.00;;
64633;SDS011;51043;52.406;9.690;2023-04-03T16:02:09;3.97;;;1.83;;
64633;SDS011;51043;52.406;9.690;2023-04-03T16:04:38;4.67;;;1.80;;
64633;SDS011;51043;52.406;9.690;2023-04-03T16:07:06;3.93;;;2.00;;
64633;SDS011;51043;52.406;9.690;2023-04-03T16:09:33;4.00;;;1.80;;
64633;SDS011;51043;52.406;9.690;2023-04-03T16:12:04;3.67;;;1.77;;
64633;SDS011;51043;52.406;9.690;2023-04-03T16:14:31;7.07;;;2.00;;
64633;SDS011;51043;52.406;9.690;2023-04-03T16:16:58;4.13;;;1.90;;
64633;SDS011;51043;52.406;9.690;2023-04-03T16:19:25;2.87;;;1.83;;
64633;SDS011;51043;52.406;9.690;2023-04-03T16:21:53;5.83;;;2.10;;
64633;SDS011;51043;52.406;9.690;2023-04-03T16:24:21;3.90;;;2.00;;
64633;SDS011;51043;52.406;9.690;2023-04-03T16:26:48;3.63;;;2.10;;
64633;SDS011;51043;52.406;9.690;2023-04-03T16:29:15;5.50;;;2.03;;